Free Trial

TJX Companies (TJX) Institutional Ownership

$101.12
+3.42 (+3.50%)
(As of 05/22/2024 ET)

Institutional Ownership Changes (13F Filings) for TJX Companies (NYSE:TJX)

Current
Institutional Ownership
Percentage
91.09%
Number of
Institutional Buyers
(last 12 months)
1265
Total
Institutional Inflows
(last 12 months)
$11.11B
Number of
Institutional Sellers
(last 12 months)
946
Total
Institutional Outflows
(last 12 months)
$10.34B
Get TJX Insider Trade Alerts

Want to know when executives and insiders are buying or selling TJX Companies stock? Sign up for InsiderTrades.com's daily newsletter to get the latest insider transactions delivered to your inbox daily.

Skip Chart & View Institutional Buying and Selling Data

TJX Institutional Buying and Selling by Quarter

TJX Companies Major Shareholders & Ownership History

Reporting DateMajor Shareholder NameShares HeldMarket Value% of PortfolioQuarterly Change in SharesOwnership in CompanyDetails
5/22/2024Burney Co.207,222$21.02M0.8%-0.2%0.018%
5/22/2024Beck Bode LLC19,431$1.97M0.4%-28.1%0.002%
5/21/2024Atria Investments Inc132,223$13.40M0.2%+4.5%0.012%
5/21/2024 Swedbank AB714,298$72.44M0.1%N/A0.063%
5/21/2024Sanibel Captiva Trust Company Inc.155,101$15.73M0.5%-5.5%0.014%
5/21/2024 LRI Investments LLC3,183$323K0.0%N/A0.000%
5/21/2024Arrow Financial Corp39,426$4.00M0.4%-17.0%0.003%
5/20/2024Strategic Wealth Partners Ltd.59,358$6.02M0.7%+8.2%0.005%
5/17/2024 Wahed Invest LLC22,498$2.28M0.5%+14.4%0.002%
5/17/2024 Citizens Financial Group Inc. RI101,109$10.25M0.3%-0.9%0.009%
5/17/2024 Rokos Capital Management LLP261,069$26.46M0.1%N/A0.023%
5/17/2024 CCM Investment Advisers LLC41,210$4.18M0.5%-16.3%0.004%
5/17/2024 New Covenant Trust Company N.A.1,200$122K0.1%N/A0.000%
5/17/2024 Plato Investment Management Ltd34,458$3.50M0.4%+1,022.8%0.003%
5/17/2024 iA Global Asset Management Inc.73,162$7.42M0.1%-21.9%0.006%
5/17/2024 Vista Investment Partners LLC3,627$368K0.1%N/A0.000%
5/17/2024 First Western Trust Bank106,798$10.83M0.5%-3.2%0.009%
5/17/2024 Jaffetilchin Investment Partners LLC4,399$446K0.0%-2.4%0.000%
5/17/2024 Comerica Bank390,597$39.61M0.2%+0.5%0.034%
5/17/2024 Hancock Whitney Corp131,158$13.30M0.5%+398.8%0.012%
5/17/2024 SkyView Investment Advisors LLC9,182$931K0.2%N/A0.001%
5/17/2024 Empirical Capital Management LLC100,000$10.14M8.2%+29.0%0.009%
5/17/2024 Tidal Investments LLC64,485$6.54M0.1%-15.7%0.006%
5/16/2024 California State Teachers Retirement System1,847,374$187.36M0.2%+0.1%0.163%
5/16/2024 Meiji Yasuda Life Insurance Co68,555$6.95M0.1%+21.3%0.006%
5/16/2024 B. Riley Wealth Advisors Inc.84,486$8.57M0.2%+1.9%0.007%
5/16/2024 Ancora Advisors LLC34,689$3.52M0.1%-0.5%0.003%
5/16/2024 Whalerock Point Partners LLC39,803$4.04M1.1%+0.9%0.004%
5/16/2024 Industrial Alliance Investment Management Inc.4,500$456K0.2%+3.2%0.000%
5/16/2024 Janus Henderson Group PLC13,226,465$1.34B0.7%+2.7%1.167%
5/16/2024 BTG Pactual Global Asset Management Ltd26,531$2.69M0.4%+45.4%0.002%
5/16/2024 Bayberry Capital Partners LP180,000$18.26M3.4%-14.3%0.016%
5/16/2024 Bayesian Capital Management LP49,100$4.98M0.5%N/A0.004%
5/16/2024 Captrust Financial Advisors313,029$31.75M0.1%+6.9%0.028%
5/16/2024 Caxton Associates LP15,341$1.56M0.1%+122.7%0.001%
5/15/2024 Ascent Group LLC45,989$4.66M0.4%+71.2%0.004%
5/15/2024 Earnest Partners LLC798,010$80.93M0.4%+23.0%0.070%
5/15/2024 SVB Wealth LLC133,930$13.58M0.3%-1.8%0.012%
5/15/2024 Mount Yale Investment Advisors LLC21,372$2.17M0.2%+1.0%0.002%
5/15/2024 Public Employees Retirement System of Ohio560,216$56.82M0.2%-7.2%0.049%
Elon to Transform U.S. Economy? (Ad)

A radical, potentially game-changing technology that threatens to destroy the trillion-dollar, “green energy” grift of the elites. And yet, while it threatens their wealth and power, it could be transformational for both the U.S. economy and your wealth.

One company holds a near-total monopoly on it.
5/15/2024 London & Capital Asset Management Ltd412,049$41.79M3.2%-0.8%0.036%
5/15/2024 Public Employees Retirement Association of Colorado160,826$16.31M0.1%-5.3%0.014%
5/15/2024 Morse Asset Management Inc7,560$767K0.2%+81.3%0.001%
5/15/2024 Manhattan West Asset Management LLC24,670$2.50M0.6%+0.4%0.002%
5/15/2024 Kentucky Retirement Systems Insurance Trust Fund37,610$3.81M0.3%-7.7%0.003%
5/15/2024 Kentucky Retirement Systems86,550$8.78M0.3%-5.5%0.008%
5/15/2024 Price T Rowe Associates Inc. MD12,317,452$1.25B0.2%+35.9%1.087%
5/15/2024 BOKF NA68,850$6.86M0.1%-3.5%0.006%
5/15/2024 Beck Capital Management LLC17,661$1.79M0.5%-1.7%0.002%
5/15/2024 Hyperion Capital Advisors LP30,341$3.08M1.5%-1.6%0.003%
5/15/2024 Lazard Asset Management LLC749,431$76.01M0.1%-0.1%0.066%
5/15/2024 Bank of Nova Scotia Trust Co.43,107$4.37M0.5%+3.9%0.004%
5/15/2024 Epoch Investment Partners Inc.1,067,202$108.24M0.5%+14.6%0.094%
5/15/2024 LRI Investments LLC4,642$458K0.1%N/A0.000%
5/15/2024 1832 Asset Management L.P.5,356,715$543.28M0.3%-16.8%0.473%
5/15/2024 Linscomb Wealth Inc.43,270$4.39M0.2%-1.7%0.004%
5/15/2024 Gamco Investors INC. ET AL2,800$284K0.0%+12.0%0.000%
5/15/2024 Longview Partners Guernsey LTD6,943,174$704.18M4.5%-2.7%0.613%
5/14/2024 Canada Pension Plan Investment Board818,212$82.98M0.1%+22.4%0.072%
5/14/2024 Guardian Capital LP21,921$2.22M0.1%+17.2%0.002%
5/14/2024 Westwood Holdings Group Inc.208,388$21.14M0.2%+58.3%0.018%
5/14/2024 Teca Partners LP99,511$10.09M6.4%-19.4%0.009%
5/14/2024 Toronto Dominion Bank681,305$69.10M0.1%-12.9%0.060%
5/14/2024 Capital International Inc. CA 53,489$5.43M0.1%-4.9%0.005%
5/14/2024 Capital International Investors13,407,390$1.36B0.3%-24.9%1.183%
5/14/2024 Capital Group Private Client Services Inc.155,596$15.78M0.2%+353.7%0.014%
5/14/2024 Cadence Bank5,523$560K0.0%N/A0.000%
5/14/2024 Rodgers Brothers Inc.15,300$1.55M0.2%+466.7%0.001%
5/14/2024 Pinnbrook Capital Management LP113,391$11.50M1.0%+6.4%0.010%
5/14/2024 First Commonwealth Financial Corp PA 13,129$1.33M0.4%+21.4%0.001%
5/14/2024 Advisors Asset Management Inc.132,533$13.44M0.3%+1.0%0.012%
5/14/2024 EP Wealth Advisors LLC67,155$6.81M0.1%+20.6%0.006%
5/14/2024 Wellington Wealth Strategies LLC.4,798$487K0.2%N/A0.000%
5/14/2024 CreativeOne Wealth LLC16,538$1.68M0.1%+139.2%0.001%
5/14/2024 Delap Wealth Advisory LLC2,538$257K0.1%N/A0.000%
5/14/2024 EntryPoint Capital LLC1,175$119K0.1%-15.0%0.000%
5/14/2024 Vident Advisory LLC123,879$12.56M0.3%+14.1%0.011%
5/14/2024 Forte Capital LLC ADV181,322$18.39M2.3%-1.2%0.016%
5/14/2024 Shell Asset Management Co.28,206$2.86M0.1%+11.6%0.002%
5/14/2024 Crewe Advisors LLC17,008$1.73M0.2%N/A0.002%
5/14/2024 Evermay Wealth Management LLC8,358$848K0.1%+11.3%0.001%
5/14/2024 Burns Matteson Capital Management LLC8,630$875K0.5%-4.2%0.001%
5/14/2024 Ossiam287,010$29.11M0.5%+478.4%0.025%
5/14/2024 Natixis186,472$18.91M0.1%+282.4%0.016%
5/14/2024 InterOcean Capital Group LLC6,179$627K0.0%-9.5%0.001%
5/14/2024 Pitcairn Co.14,763$1.50M0.1%+17.1%0.001%
5/14/2024 Healthcare of Ontario Pension Plan Trust Fund213,373$21.64M0.1%+137.6%0.019%
5/14/2024 Puzo Michael J84,563$8.58M2.4%+7.8%0.007%
5/14/2024 CANADA LIFE ASSURANCE Co1,837,057$186.45M0.4%+0.6%0.162%
5/14/2024 Oxford Financial Group LTD. LLC3,475$352K0.0%+9.1%0.000%
WARNING about the death of the U.S. dollar… (Ad)

Where do you turn during times of economic uncertainty? Many elites trust storing their wealth in gold (which has historically boomed when the dollar’s value has plummeted!)

Get Colonial Metals' new Precious Metals Investment Guide.
5/14/2024 American International Group Inc.356,699$36.18M0.1%-1.6%0.031%
5/14/2024 Twin Capital Management Inc.17,056$1.73M0.2%-0.9%0.002%
5/14/2024 National Bank of Canada FI1,084,620$107.14M0.2%+87.8%0.096%
5/14/2024 RB Capital Management LLC8,038$815K0.2%+9.0%0.001%
5/14/2024 Lake Street Advisors Group LLC12,059$1.22M0.1%+29.7%0.001%
5/14/2024 Arjuna Capital14,770$1.50M0.4%+4.9%0.001%
5/13/2024 Bessemer Group Inc.90,369$9.17M0.0%+61.5%0.008%
5/13/2024 Thornburg Investment Management Inc.478,881$48.57M0.7%-9.6%0.042%
5/13/2024 Capitolis Liquid Global Markets LLC586,000$59.43M1.0%+25.2%0.052%
5/13/2024 Hilltop Partners LLC8,756$888K0.3%+5.5%0.001%
(Data available from 1/1/2016 forward)

TJX Institutional Ownership - Frequently Asked Questions

Who are the largest shareholders of TJX shares?

During the previous two years, 2,034 institutional investors and hedge funds held shares of TJX Companies. The most heavily invested institutionals were Vanguard Group Inc. ($9.89B), BlackRock Inc. ($6.79B), Wellington Management Group LLP ($4.85B), FMR LLC ($4.62B), State Street Corp ($3.95B), Morgan Stanley ($2.20B), and Bank of New York Mellon Corp ($2.18B).Learn more on TJX's institutional investors.

What percentage of TJX Companies stock is owned by institutional investors?

91.09% of TJX Companies stock is owned by institutional investors. Learn more on TJX's institutional investor holdings.

Which institutional investors have been buying TJX Companies stock?

Of the 1,750 institutional investors that purchased TJX Companies stock in the last 24 months, the following investors and hedge funds have bought the highest volume of shares: Bank Julius Baer & Co. Ltd Zurich ($16.72M), FMR LLC ($16.70M), Norges Bank ($12.72M), Price T Rowe Associates Inc. MD ($7.34M), CIBC Private Wealth Group LLC ($6.01M), Vanguard Group Inc. ($3.70M), and Bank of Montreal Can ($3.68M).

How much institutional buying is happening at TJX Companies?

Institutional investors have bought a total of 202,730,534 shares in the last 24 months. This purchase volume represents approximately $16.67B in transactions.

Which TJX Companies major shareholders have been selling company stock?

Of the 1,300 institutional investors that sold TJX Companies stock in the last 24 months, the following investors and hedge funds have sold the highest volume of shares: Wellington Management Group LLP ($37.53M), OFI Invest Asset Management ($28.31M), Jennison Associates LLC ($9.18M), Price T Rowe Associates Inc. MD ($6.51M), Capital International Investors ($4.61M), Jensen Investment Management Inc. ($4.23M), and Fiera Capital Corp ($4.22M).

How much institutional selling is happening at TJX Companies?

Institutional investors have sold a total of 213,201,839 shares in the last 24 months. This volume of shares sold represents approximately $17.05B in transactions.


This page (NYSE:TJX) was last updated on 5/22/2024 by MarketBeat.com Staff

From Our Partners